createdAt,value
2022-10-20T18:19:32.282Z,11.80
2022-10-20T18:22:00.122Z,11.65
2022-10-20T18:24:27.610Z,12.58
2022-10-20T18:26:55.405Z,12.58
2022-10-20T18:29:25.479Z,11.40
2022-10-20T18:31:54.528Z,11.68
2022-10-20T18:34:22.334Z,11.38
2022-10-20T18:36:52.662Z,11.80
2022-10-20T18:39:22.703Z,12.35
2022-10-20T18:41:54.773Z,13.18
2022-10-20T18:44:23.964Z,14.83
2022-10-20T18:46:55.023Z,14.00
2022-10-20T18:49:28.234Z,13.00
2022-10-20T18:51:56.134Z,12.78
2022-10-20T18:54:24.784Z,12.23
2022-10-20T18:56:54.216Z,10.60
2022-10-20T18:59:23.212Z,12.13
2022-10-20T19:01:51.285Z,11.48
2022-10-20T19:04:21.744Z,12.33
2022-10-20T19:06:53.441Z,12.63
2022-10-20T19:09:22.417Z,11.43
2022-10-20T19:14:25.585Z,11.63
2022-10-20T19:19:25.924Z,12.50
2022-10-20T19:21:56.719Z,11.48
2022-10-20T19:24:25.329Z,12.75
2022-10-20T19:27:25.070Z,11.73
2022-10-20T19:29:25.434Z,11.93
2022-10-20T19:31:56.819Z,12.00
2022-10-20T19:34:28.525Z,12.37
2022-10-20T19:36:56.773Z,26.12
2022-10-20T19:39:28.305Z,25.10
2022-10-20T19:41:57.521Z,25.72
2022-10-20T19:44:26.593Z,24.12
2022-10-20T19:46:54.711Z,20.90
2022-10-20T19:49:24.195Z,15.35
2022-10-20T19:51:56.294Z,13.85
2022-10-20T19:54:48.299Z,13.20
2022-10-20T19:57:15.960Z,14.65
2022-10-20T19:59:43.718Z,14.55
2022-10-20T20:02:13.111Z,15.20
2022-10-20T20:04:41.313Z,13.45
2022-10-20T20:07:12.239Z,13.32
2022-10-20T20:09:39.608Z,13.65
2022-10-20T20:12:07.456Z,13.30
2022-10-20T20:14:35.262Z,17.32
2022-10-20T20:17:07.372Z,14.68
2022-10-20T20:19:33.571Z,14.85
2022-10-20T20:22:01.354Z,15.50
2022-10-20T20:24:28.913Z,14.35
2022-10-20T20:26:57.368Z,14.33
2022-10-20T20:29:27.492Z,13.05
2022-10-20T20:31:55.693Z,12.30
2022-10-20T20:34:23.865Z,13.35
2022-10-20T20:36:51.752Z,12.85
2022-10-20T20:39:19.816Z,14.13
2022-10-20T20:41:49.190Z,13.20
2022-10-20T20:44:17.411Z,12.98
2022-10-20T20:46:47.729Z,13.98
2022-10-20T20:49:15.464Z,13.60
2022-10-20T20:51:42.758Z,13.75
2022-10-20T20:54:11.298Z,12.85
2022-10-20T20:56:39.005Z,13.38
2022-10-20T20:59:06.964Z,13.88
2022-10-20T21:01:35.125Z,14.13
2022-10-20T21:04:05.535Z,13.95
2022-10-20T21:06:43.415Z,13.13
2022-10-20T21:09:02.858Z,13.48
2022-10-20T21:11:30.568Z,13.90
2022-10-20T21:14:00.304Z,14.03
2022-10-20T21:16:31.827Z,13.20
2022-10-20T21:19:02.680Z,13.13
2022-10-20T21:21:37.678Z,15.40
2022-10-20T21:24:12.981Z,14.23
2022-10-20T21:26:39.270Z,13.83
2022-10-20T21:29:07.155Z,13.93
2022-10-20T21:31:34.802Z,14.03
2022-10-20T21:34:05.437Z,14.38
2022-10-20T21:36:37.337Z,13.72
2022-10-20T21:39:07.935Z,14.90
2022-10-20T21:41:37.122Z,14.98
2022-10-20T21:44:06.752Z,15.28
2022-10-20T21:46:40.533Z,14.25
2022-10-20T21:49:13.419Z,13.40
2022-10-20T21:51:44.258Z,14.85
2022-10-20T21:54:16.430Z,14.40
2022-10-20T21:56:45.930Z,13.83
2022-10-20T21:59:22.676Z,14.50
2022-10-20T22:01:51.897Z,14.15
2022-10-20T22:04:21.454Z,15.20
2022-10-20T22:06:49.285Z,14.83
2022-10-20T22:09:17.624Z,14.38
2022-10-20T22:11:48.729Z,14.93
2022-10-20T22:14:18.111Z,14.15
2022-10-20T22:16:45.741Z,14.25
2022-10-20T22:19:19.764Z,14.47
2022-10-20T22:21:49.002Z,15.70
2022-10-20T22:24:18.951Z,15.08
2022-10-20T22:26:49.282Z,14.63
2022-10-20T22:29:16.866Z,14.58
2022-10-20T22:31:44.767Z,15.45
2022-10-20T22:34:13.062Z,14.93
2022-10-20T22:36:40.976Z,14.10
2022-10-20T22:39:09.825Z,14.73
2022-10-20T22:41:37.222Z,14.80
2022-10-20T22:44:05.706Z,14.15
2022-10-20T22:46:33.755Z,15.23
2022-10-20T22:49:01.375Z,14.85
2022-10-20T22:51:29.304Z,14.05
2022-10-20T22:53:59.481Z,14.78
2022-10-20T22:56:27.700Z,15.03
2022-10-20T22:58:55.748Z,14.70
2022-10-20T23:01:24.572Z,14.47
2022-10-20T23:03:55.410Z,14.43
2022-10-20T23:06:26.389Z,13.70
2022-10-20T23:08:57.457Z,15.05
2022-10-20T23:11:25.345Z,14.95
2022-10-20T23:13:53.213Z,14.65
2022-10-20T23:16:21.542Z,14.73
2022-10-20T23:18:59.896Z,14.50
2022-10-20T23:21:27.470Z,13.90
2022-10-20T23:23:55.433Z,15.00
2022-10-20T23:26:23.131Z,14.38
2022-10-20T23:28:50.857Z,14.38
2022-10-20T23:31:21.082Z,15.20
2022-10-20T23:33:54.679Z,15.38
2022-10-20T23:36:23.682Z,15.70
2022-10-20T23:38:51.437Z,14.87
2022-10-20T23:41:19.537Z,15.65
2022-10-20T23:43:47.885Z,14.68
2022-10-20T23:46:16.371Z,14.93
2022-10-20T23:48:43.948Z,15.43
2022-10-20T23:51:11.899Z,14.18
2022-10-20T23:53:39.765Z,14.83
2022-10-20T23:56:10.948Z,13.93
2022-10-20T23:58:38.465Z,14.38
